createdAt,value
2022-11-16T00:01:18.923Z,9.27
2022-11-16T00:04:06.721Z,9.29
2022-11-16T00:06:49.394Z,9.30
2022-11-16T00:09:22.268Z,9.35
2022-11-16T00:11:52.464Z,9.33
2022-11-16T00:14:20.249Z,9.35
2022-11-16T00:17:07.726Z,9.33
2022-11-16T00:19:58.561Z,9.41
2022-11-16T00:22:25.351Z,9.33
2022-11-16T00:24:52.182Z,9.29
2022-11-16T00:27:19.080Z,9.28
2022-11-16T00:30:05.741Z,9.22
2022-11-16T00:32:46.170Z,9.21
2022-11-16T00:35:13.133Z,9.21
2022-11-16T00:37:39.967Z,9.15
2022-11-16T00:40:07.268Z,9.14
2022-11-16T00:42:34.021Z,9.13
2022-11-16T00:45:00.833Z,9.13
2022-11-16T00:47:27.698Z,9.07
2022-11-16T00:49:54.647Z,9.06
2022-11-16T00:52:21.565Z,9.06
2022-11-16T00:55:08.745Z,9.04
2022-11-16T00:58:09.772Z,9.06
2022-11-16T01:00:52.386Z,9.09
2022-11-16T01:03:39.753Z,9.16
2022-11-16T01:06:20.451Z,9.19
2022-11-16T01:08:47.290Z,9.19
2022-11-16T01:11:33.180Z,9.16
2022-11-16T01:14:01.679Z,9.13
2022-11-16T01:16:28.683Z,9.15
2022-11-16T01:19:15.769Z,9.18
2022-11-16T01:21:56.369Z,9.15
2022-11-16T01:24:23.344Z,9.06
2022-11-16T01:26:50.428Z,9.08
2022-11-16T01:29:37.812Z,9.18
2022-11-16T01:32:18.180Z,9.21
2022-11-16T01:34:44.936Z,9.24
2022-11-16T01:37:40.794Z,9.29
2022-11-16T01:40:08.091Z,9.23
2022-11-16T01:42:36.305Z,9.19
2022-11-16T01:45:03.249Z,9.05
2022-11-16T01:47:30.813Z,8.86
2022-11-16T01:50:03.140Z,8.80
2022-11-16T01:52:33.993Z,8.84
2022-11-16T01:55:02.578Z,8.92
2022-11-16T01:57:40.912Z,8.89
2022-11-16T02:00:30.820Z,8.94
2022-11-16T02:03:52.775Z,8.71
2022-11-16T02:06:45.516Z,8.71
2022-11-16T02:09:41.435Z,8.73
2022-11-16T02:12:24.068Z,8.88
2022-11-16T02:15:09.923Z,8.82
2022-11-16T02:17:57.772Z,8.87
2022-11-16T02:20:53.183Z,9.02
2022-11-16T02:23:23.085Z,9.06
2022-11-16T02:25:49.892Z,9.01
2022-11-16T02:28:57.822Z,8.92
2022-11-16T02:31:45.486Z,8.92
2022-11-16T02:34:13.755Z,8.91
2022-11-16T02:36:41.827Z,9.04
2022-11-16T02:39:12.361Z,9.06
2022-11-16T02:41:41.538Z,9.14
2022-11-16T02:44:13.913Z,9.13
2022-11-16T02:46:43.478Z,9.19
2022-11-16T02:49:12.654Z,9.12
2022-11-16T02:51:41.375Z,8.98
2022-11-16T02:54:12.733Z,8.93
2022-11-16T02:57:25.821Z,8.82
2022-11-16T03:00:07.775Z,8.80
2022-11-16T03:02:37.835Z,8.77
2022-11-16T03:05:07.986Z,8.81
2022-11-16T03:07:49.322Z,8.90
2022-11-16T03:10:38.009Z,8.84
2022-11-16T03:13:08.521Z,8.87
2022-11-16T03:15:37.684Z,8.97
2022-11-16T03:18:28.827Z,9.04
2022-11-16T03:21:32.836Z,9.10
2022-11-16T03:24:13.748Z,9.18
2022-11-16T03:26:49.164Z,9.15
2022-11-16T03:30:07.870Z,9.19
2022-11-16T03:32:54.939Z,9.15
2022-11-16T03:35:27.068Z,9.07
2022-11-16T03:37:55.948Z,9.15
2022-11-16T03:40:24.915Z,9.10
2022-11-16T03:42:52.650Z,9.13
2022-11-16T03:45:20.066Z,9.14
2022-11-16T03:47:48.673Z,9.13
2022-11-16T03:50:15.874Z,9.16
2022-11-16T03:52:43.609Z,9.06
2022-11-16T03:55:32.851Z,9.02
2022-11-16T03:58:13.298Z,8.96
2022-11-16T04:01:00.905Z,9.01
2022-11-16T04:03:50.840Z,9.10
2022-11-16T04:06:38.317Z,9.16
2022-11-16T04:09:28.653Z,9.14
2022-11-16T04:12:14.206Z,9.18
2022-11-16T04:15:00.966Z,9.20
2022-11-16T04:18:08.914Z,9.14
2022-11-16T04:21:08.019Z,9.17
2022-11-16T04:23:53.617Z,9.14
2022-11-16T04:26:42.116Z,9.17
2022-11-16T04:29:29.869Z,9.19
2022-11-16T04:32:48.875Z,9.15
2022-11-16T04:35:48.941Z,9.11
2022-11-16T04:38:15.722Z,9.15
2022-11-16T04:40:42.723Z,9.09
2022-11-16T04:43:11.944Z,9.02
2022-11-16T04:46:00.834Z,9.03
2022-11-16T04:48:35.108Z,9.09
2022-11-16T04:51:02.847Z,8.99
2022-11-16T04:53:29.972Z,9.07
2022-11-16T04:56:11.427Z,9.02
2022-11-16T04:58:58.932Z,8.99
2022-11-16T05:01:57.869Z,9.05
2022-11-16T05:04:24.690Z,9.05
2022-11-16T05:06:51.504Z,8.86
2022-11-16T05:09:18.530Z,8.98
2022-11-16T05:11:45.753Z,9.10
2022-11-16T05:14:12.683Z,9.18
2022-11-16T05:16:41.435Z,9.15
2022-11-16T05:19:46.921Z,9.15
2022-11-16T05:22:25.825Z,9.04
2022-11-16T05:24:54.408Z,9.09
2022-11-16T05:27:42.906Z,8.91
2022-11-16T05:30:43.905Z,8.89
2022-11-16T05:33:28.391Z,9.00
2022-11-16T05:35:55.221Z,8.83
2022-11-16T05:38:22.587Z,8.86
2022-11-16T05:40:53.786Z,8.81
2022-11-16T05:43:20.933Z,8.95
2022-11-16T05:45:58.932Z,8.99
2022-11-16T05:48:25.740Z,9.04
2022-11-16T05:50:58.326Z,9.07
2022-11-16T05:53:25.851Z,9.15
2022-11-16T05:56:13.029Z,9.09
2022-11-16T05:59:16.639Z,9.21
2022-11-16T06:02:20.944Z,9.23
2022-11-16T06:05:21.940Z,9.24
2022-11-16T06:07:54.047Z,9.19
2022-11-16T06:10:21.451Z,9.23
2022-11-16T06:13:10.923Z,9.23
2022-11-16T06:16:11.926Z,9.21
2022-11-16T06:19:12.922Z,8.98
2022-11-16T06:21:53.327Z,9.14
2022-11-16T06:24:24.686Z,9.22
2022-11-16T06:26:52.094Z,9.24
2022-11-16T06:29:39.038Z,9.24
2022-11-16T06:32:19.466Z,9.32
2022-11-16T06:34:46.322Z,9.41
2022-11-16T06:37:13.289Z,9.38
2022-11-16T06:39:40.121Z,9.40
2022-11-16T06:42:08.130Z,9.29
2022-11-16T06:44:36.818Z,9.33
2022-11-16T06:47:25.948Z,9.42
2022-11-16T06:50:07.628Z,9.45
2022-11-16T06:52:34.722Z,9.53
2022-11-16T06:55:22.059Z,9.55
2022-11-16T06:58:03.011Z,9.59
2022-11-16T07:00:30.894Z,9.53
2022-11-16T07:02:57.799Z,9.48
2022-11-16T07:05:25.083Z,9.19
2022-11-16T07:07:54.083Z,9.04
2022-11-16T07:10:21.704Z,9.05
2022-11-16T07:12:48.741Z,9.15
2022-11-16T07:15:17.239Z,9.24
2022-11-16T07:18:08.975Z,9.32
2022-11-16T07:21:09.958Z,9.40
2022-11-16T07:23:51.615Z,9.48
2022-11-16T07:26:39.976Z,9.50
2022-11-16T07:29:45.039Z,9.45
2022-11-16T07:32:40.645Z,9.40
2022-11-16T07:35:07.800Z,9.39
2022-11-16T07:37:36.287Z,9.41
2022-11-16T07:40:03.636Z,9.39
2022-11-16T07:42:31.467Z,9.31
2022-11-16T07:45:13.139Z,9.21
2022-11-16T07:47:52.313Z,9.22
2022-11-16T07:50:39.468Z,9.27
2022-11-16T07:53:27.054Z,9.09
2022-11-16T07:56:07.957Z,9.18
2022-11-16T07:58:35.873Z,9.25
2022-11-16T08:01:05.162Z,9.07
2022-11-16T08:03:34.401Z,9.18
2022-11-16T08:06:05.246Z,9.25
2022-11-16T08:08:32.707Z,9.26
2022-11-16T08:11:20.977Z,9.25
2022-11-16T08:14:22.049Z,9.22
2022-11-16T08:17:23.974Z,9.21
2022-11-16T08:20:26.030Z,9.24
2022-11-16T08:23:00.258Z,9.28
2022-11-16T08:25:28.381Z,9.11
2022-11-16T08:27:55.304Z,9.16
2022-11-16T08:30:44.958Z,8.97
2022-11-16T08:33:48.051Z,9.02
2022-11-16T08:36:28.548Z,9.24
2022-11-16T08:38:55.591Z,9.35
2022-11-16T08:41:23.963Z,9.25
2022-11-16T08:44:11.102Z,9.29
2022-11-16T08:47:16.010Z,9.39
2022-11-16T08:50:22.046Z,9.43
2022-11-16T08:53:23.026Z,9.34
2022-11-16T08:56:25.003Z,9.19
2022-11-16T08:58:59.245Z,9.08
2022-11-16T09:01:28.680Z,9.14
2022-11-16T09:03:56.014Z,9.23
2022-11-16T09:06:23.930Z,9.16
2022-11-16T09:08:51.093Z,9.26
2022-11-16T09:11:19.600Z,9.29
2022-11-16T09:13:47.450Z,9.25
2022-11-16T09:16:16.823Z,9.21
2022-11-16T09:18:44.657Z,9.23
2022-11-16T09:21:11.487Z,9.37
2022-11-16T09:23:38.392Z,9.45
2022-11-16T09:26:06.030Z,9.42
2022-11-16T09:28:53.048Z,9.52
2022-11-16T09:31:46.065Z,9.70
2022-11-16T09:34:12.865Z,9.78
2022-11-16T09:36:39.813Z,9.82
2022-11-16T09:42:06.690Z,9.66
2022-11-16T09:44:41.567Z,10.00
2022-11-16T09:47:40.038Z,9.79
2022-11-16T09:50:50.057Z,9.75
2022-11-16T09:53:39.703Z,9.72
2022-11-16T09:56:21.878Z,9.81
2022-11-16T09:59:04.147Z,9.80
2022-11-16T10:01:56.045Z,9.86
2022-11-16T10:04:58.008Z,10.06
2022-11-16T10:07:45.120Z,9.96
2022-11-16T10:10:15.045Z,10.03
2022-11-16T10:12:52.015Z,10.03
2022-11-16T10:15:32.294Z,10.24
2022-11-16T10:18:08.246Z,10.41
2022-11-16T10:20:41.123Z,10.64
2022-11-16T10:23:11.636Z,10.80
2022-11-16T10:25:42.440Z,10.68
2022-11-16T10:28:28.219Z,10.73
2022-11-16T10:31:24.088Z,10.84
2022-11-16T10:34:06.500Z,10.95
2022-11-16T10:36:36.155Z,10.66
2022-11-16T10:39:03.066Z,10.94
2022-11-16T10:41:40.111Z,10.95
2022-11-16T10:44:35.062Z,10.81
2022-11-16T10:47:41.112Z,11.03
2022-11-16T10:50:45.106Z,11.32
2022-11-16T10:53:32.254Z,11.41
2022-11-16T10:56:18.403Z,11.14
2022-11-16T10:58:56.145Z,11.12
2022-11-16T11:01:43.091Z,11.35
2022-11-16T11:04:46.126Z,11.35
2022-11-16T11:07:35.430Z,11.31
2022-11-16T11:10:02.603Z,11.06
2022-11-16T11:12:38.537Z,11.02
2022-11-16T11:15:05.953Z,10.88
2022-11-16T11:17:33.963Z,10.93
2022-11-16T11:20:06.882Z,10.85
2022-11-16T11:22:35.558Z,10.91
2022-11-16T11:25:05.816Z,11.06
2022-11-16T11:27:34.283Z,11.24
2022-11-16T11:30:32.143Z,11.46
2022-11-16T11:33:13.641Z,11.27
2022-11-16T11:35:40.440Z,11.24
2022-11-16T11:38:08.380Z,11.39
2022-11-16T11:40:36.259Z,11.40
2022-11-16T11:43:34.481Z,11.40
2022-11-16T11:46:23.222Z,11.33
2022-11-16T11:49:39.114Z,11.52
2022-11-16T11:52:45.095Z,11.79
2022-11-16T11:55:25.740Z,11.72
2022-11-16T11:57:53.903Z,11.76
2022-11-16T12:00:41.133Z,11.49
2022-11-16T12:03:40.425Z,11.31
2022-11-16T12:06:14.953Z,10.99
2022-11-16T12:09:02.977Z,10.93
2022-11-16T12:11:48.437Z,11.08
2022-11-16T12:14:22.862Z,11.28
2022-11-16T12:17:08.607Z,11.40
2022-11-16T12:20:01.492Z,11.41
2022-11-16T12:22:34.286Z,11.32
2022-11-16T12:25:16.720Z,11.18
2022-11-16T12:27:43.514Z,10.91
2022-11-16T12:30:34.143Z,10.83
2022-11-16T12:33:34.889Z,10.84
2022-11-16T12:36:07.904Z,10.93
2022-11-16T12:38:42.273Z,10.52
2022-11-16T12:41:47.166Z,10.43
2022-11-16T12:44:53.188Z,10.44
2022-11-16T12:47:57.165Z,10.60
2022-11-16T12:50:58.157Z,10.77
2022-11-16T12:53:43.690Z,10.71
2022-11-16T12:56:16.741Z,10.60
2022-11-16T12:58:58.878Z,10.64
2022-11-16T13:01:46.158Z,10.70
2022-11-16T13:04:59.132Z,10.92
2022-11-16T13:07:44.803Z,11.04
2022-11-16T13:10:17.942Z,10.87
2022-11-16T13:12:45.987Z,10.91
2022-11-16T13:15:19.241Z,10.94
2022-11-16T13:17:58.389Z,10.96
2022-11-16T13:20:28.433Z,11.22
2022-11-16T13:23:24.603Z,10.70
2022-11-16T13:26:10.625Z,10.96
2022-11-16T13:29:02.229Z,11.09
2022-11-16T13:32:18.080Z,11.40
2022-11-16T13:34:45.574Z,11.43
2022-11-16T13:37:31.286Z,11.53
2022-11-16T13:40:18.182Z,11.79
2022-11-16T13:43:19.177Z,11.76
2022-11-16T13:46:53.568Z,11.39
2022-11-16T13:49:44.235Z,11.29
2022-11-16T13:53:23.507Z,11.62
2022-11-16T13:55:30.344Z,11.55
2022-11-16T13:57:58.713Z,11.60
2022-11-16T14:00:47.232Z,11.42
2022-11-16T14:03:58.225Z,11.39
2022-11-16T14:06:44.599Z,11.30
2022-11-16T14:09:33.165Z,11.43
2022-11-16T14:12:20.043Z,11.56
2022-11-16T14:15:05.636Z,11.29
2022-11-16T14:17:51.330Z,11.67
2022-11-16T14:20:58.196Z,11.89
2022-11-16T14:23:51.211Z,11.76
2022-11-16T14:26:24.302Z,11.63
2022-11-16T14:29:27.334Z,11.63
2022-11-16T14:32:20.217Z,11.66
2022-11-16T14:34:48.998Z,11.75
2022-11-16T14:37:36.242Z,11.45
2022-11-16T14:40:18.504Z,11.43
2022-11-16T14:46:16.252Z,11.41
2022-11-16T14:49:17.256Z,11.48
2022-11-16T14:52:18.231Z,11.53
2022-11-16T14:54:52.619Z,11.49
2022-11-16T14:57:20.705Z,11.66
2022-11-16T14:59:47.800Z,11.47
2022-11-16T15:02:37.276Z,11.27
2022-11-16T15:05:23.049Z,11.25
2022-11-16T15:07:52.174Z,11.10
2022-11-16T15:10:24.640Z,11.06
2022-11-16T15:12:53.771Z,11.01
2022-11-16T15:15:28.140Z,11.01
2022-11-16T15:18:07.157Z,11.08
2022-11-16T15:21:01.272Z,11.00
2022-11-16T15:24:23.892Z,11.09
2022-11-16T15:27:44.238Z,11.15
2022-11-16T15:30:49.220Z,11.18
2022-11-16T15:33:32.256Z,11.17
2022-11-16T15:36:39.224Z,11.25
2022-11-16T15:39:20.891Z,11.24
2022-11-16T15:41:47.837Z,11.13
2022-11-16T15:44:17.138Z,11.10
2022-11-16T15:46:49.010Z,11.29
2022-11-16T15:49:27.848Z,10.89
2022-11-16T15:51:54.774Z,10.83
2022-11-16T15:54:23.342Z,10.95
2022-11-16T15:56:50.699Z,10.84
2022-11-16T15:59:22.176Z,10.86
2022-11-16T16:02:09.349Z,10.90
2022-11-16T16:05:10.292Z,11.03
2022-11-16T16:07:50.770Z,11.01
2022-11-16T16:10:20.722Z,11.12
2022-11-16T16:12:57.808Z,11.18
2022-11-16T16:15:38.599Z,11.26
2022-11-16T16:18:12.372Z,11.13
2022-11-16T16:20:39.201Z,11.16
2022-11-16T16:23:07.707Z,11.02
2022-11-16T16:25:54.263Z,10.88
2022-11-16T16:28:55.407Z,11.00
2022-11-16T16:31:56.272Z,11.02
2022-11-16T16:34:57.332Z,11.02
2022-11-16T16:37:58.297Z,10.96
2022-11-16T16:40:28.845Z,10.92
2022-11-16T16:42:56.581Z,10.94
2022-11-16T16:45:34.334Z,10.94
2022-11-16T16:48:01.165Z,10.94
2022-11-16T16:50:27.983Z,11.00
2022-11-16T16:52:54.972Z,10.93
2022-11-16T16:55:21.917Z,10.86
2022-11-16T16:57:48.994Z,10.99
2022-11-16T17:00:36.383Z,10.90
2022-11-16T17:03:37.498Z,10.96
2022-11-16T17:06:18.940Z,10.84
2022-11-16T17:08:45.865Z,10.75
2022-11-16T17:11:14.897Z,10.83
2022-11-16T17:13:41.917Z,10.80
2022-11-16T17:16:08.882Z,10.70
2022-11-16T17:18:35.837Z,10.72
2022-11-16T17:21:03.976Z,10.86
2022-11-16T17:23:31.054Z,10.86
2022-11-16T17:25:57.971Z,10.87
2022-11-16T17:28:24.863Z,10.85
2022-11-16T17:31:16.313Z,10.86
2022-11-16T17:34:17.364Z,10.86
2022-11-16T17:37:18.331Z,10.84
2022-11-16T17:40:19.374Z,10.86
2022-11-16T17:42:59.800Z,10.92
2022-11-16T17:45:27.798Z,10.94
2022-11-16T17:47:54.682Z,10.94
2022-11-16T17:50:21.773Z,10.87
2022-11-16T17:52:48.596Z,10.75
2022-11-16T17:55:35.379Z,10.95
2022-11-16T17:58:15.830Z,11.01
2022-11-16T18:01:03.419Z,11.01
2022-11-16T18:04:04.439Z,11.02
2022-11-16T18:06:45.024Z,11.02
2022-11-16T18:09:11.861Z,11.00
2022-11-16T18:11:39.862Z,10.93
2022-11-16T18:14:27.371Z,11.10
2022-11-16T18:17:13.398Z,10.99
2022-11-16T18:19:40.171Z,10.86
2022-11-16T18:22:07.065Z,10.74
2022-11-16T18:24:34.012Z,10.70
2022-11-16T18:27:22.351Z,10.81
2022-11-16T18:30:23.398Z,10.63
2022-11-16T18:33:29.219Z,10.47
2022-11-16T18:36:32.320Z,10.30
2022-11-16T18:39:12.932Z,10.30
2022-11-16T18:41:43.427Z,10.16
2022-11-16T18:44:11.768Z,10.06
2022-11-16T18:46:39.167Z,9.88
2022-11-16T18:49:06.154Z,9.90
2022-11-16T18:51:33.250Z,9.84
2022-11-16T18:54:20.341Z,9.80
2022-11-16T18:57:01.011Z,9.54
2022-11-16T18:59:27.931Z,9.49
2022-11-16T19:02:15.416Z,9.39
2022-11-16T19:04:55.791Z,9.21
2022-11-16T19:07:23.091Z,9.23
2022-11-16T19:09:50.133Z,9.10
2022-11-16T19:12:17.028Z,9.09
2022-11-16T19:14:43.804Z,9.04
2022-11-16T19:17:10.874Z,8.88
2022-11-16T19:19:58.399Z,8.72
2022-11-16T19:22:38.862Z,8.75
2022-11-16T19:25:06.224Z,8.64
2022-11-16T19:27:53.370Z,8.55
2022-11-16T19:30:54.400Z,8.52
2022-11-16T19:33:35.392Z,8.49
2022-11-16T19:36:12.815Z,8.46
2022-11-16T19:38:39.778Z,8.42
2022-11-16T19:41:07.624Z,8.43
2022-11-16T19:43:35.013Z,8.52
2022-11-16T19:46:03.591Z,8.58
2022-11-16T19:48:32.184Z,8.36
2022-11-16T19:51:13.405Z,8.25
2022-11-16T19:54:15.451Z,8.13
2022-11-16T19:56:56.009Z,8.13
2022-11-16T19:59:23.027Z,8.14
2022-11-16T20:02:10.354Z,8.06
2022-11-16T20:04:51.074Z,7.97
2022-11-16T20:07:18.319Z,8.02
2022-11-16T20:09:49.279Z,8.17
2022-11-16T20:12:18.999Z,8.11
2022-11-16T20:15:08.414Z,8.02
2022-11-16T20:17:48.944Z,7.87
2022-11-16T20:20:16.086Z,7.81
2022-11-16T20:22:43.872Z,7.75
2022-11-16T20:25:31.415Z,7.74
2022-11-16T20:28:32.422Z,7.65
2022-11-16T20:31:34.421Z,7.73
2022-11-16T20:34:16.287Z,7.70
2022-11-16T20:37:03.464Z,7.64
2022-11-16T20:39:46.908Z,7.48
2022-11-16T20:42:13.843Z,7.48
2022-11-16T20:44:40.850Z,7.47
2022-11-16T20:47:07.743Z,7.47
2022-11-16T20:49:54.443Z,7.40
2022-11-16T20:52:41.288Z,7.41
2022-11-16T20:55:10.067Z,7.38
2022-11-16T20:57:37.361Z,7.46
2022-11-16T21:00:24.412Z,7.35
2022-11-16T21:03:25.475Z,7.34
2022-11-16T21:06:20.624Z,7.32
2022-11-16T21:09:01.295Z,7.28
2022-11-16T21:11:29.981Z,7.27
2022-11-16T21:14:15.471Z,7.23
2022-11-16T21:16:42.583Z,7.27
2022-11-16T21:19:29.426Z,7.41
2022-11-16T21:22:32.759Z,7.58
2022-11-16T21:25:33.453Z,7.57
2022-11-16T21:28:13.860Z,7.54
2022-11-16T21:31:11.491Z,7.34
2022-11-16T21:34:13.468Z,7.12
2022-11-16T21:37:14.440Z,7.01
2022-11-16T21:39:54.909Z,6.98
2022-11-16T21:42:21.704Z,7.01
2022-11-16T21:44:48.606Z,7.37
2022-11-16T21:47:15.402Z,7.60
2022-11-16T21:49:59.519Z,7.44
2022-11-16T21:52:29.052Z,7.41
2022-11-16T21:55:02.004Z,7.34
2022-11-16T21:57:29.085Z,7.29
2022-11-16T22:00:16.514Z,7.26
2022-11-16T22:03:17.459Z,7.27
2022-11-16T22:06:18.378Z,7.13
2022-11-16T22:08:45.719Z,7.22
2022-11-16T22:11:33.449Z,6.99
2022-11-16T22:14:18.208Z,7.00
2022-11-16T22:16:45.006Z,7.11
2022-11-16T22:19:32.503Z,6.73
2022-11-16T22:22:12.993Z,6.83
2022-11-16T22:25:00.473Z,7.10
2022-11-16T22:28:05.669Z,6.89
2022-11-16T22:30:51.667Z,6.68
2022-11-16T22:33:34.642Z,6.75
2022-11-16T22:36:02.153Z,6.57
2022-11-16T22:38:29.078Z,6.41
2022-11-16T22:40:56.480Z,6.56
2022-11-16T22:43:24.470Z,6.46
2022-11-16T22:46:15.459Z,6.35
2022-11-16T22:48:56.053Z,6.46
2022-11-16T22:51:29.950Z,6.43
2022-11-16T22:53:57.836Z,6.49
2022-11-16T22:56:25.009Z,6.43
2022-11-16T22:58:52.023Z,6.52
2022-11-16T23:01:19.103Z,6.37
2022-11-16T23:03:46.356Z,6.32
2022-11-16T23:06:13.629Z,6.28
2022-11-16T23:08:41.101Z,6.18
2022-11-16T23:11:47.499Z,6.15
2022-11-16T23:15:06.513Z,6.23
2022-11-16T23:17:47.071Z,6.31
2022-11-16T23:20:32.653Z,6.20
2022-11-16T23:23:18.345Z,6.26
2022-11-16T23:26:23.502Z,6.41
2022-11-16T23:29:24.497Z,6.48
2022-11-16T23:32:05.124Z,6.44
2022-11-16T23:34:31.827Z,6.42
2022-11-16T23:37:19.527Z,6.88
2022-11-16T23:40:00.049Z,6.79
2022-11-16T23:42:45.510Z,6.87
2022-11-16T23:45:32.519Z,6.98
2022-11-16T23:48:14.353Z,6.83
2022-11-16T23:50:41.493Z,6.75
2022-11-16T23:53:09.140Z,6.43
2022-11-16T23:55:57.786Z,6.40
2022-11-16T23:58:39.884Z,6.21
